createdAt,value
2019-05-02T00:02:23.998Z,66.62
2019-05-02T00:05:11.836Z,66.80
2019-05-02T00:07:58.660Z,67.09
2019-05-02T00:10:47.987Z,67.21
2019-05-02T00:13:34.362Z,67.45
2019-05-02T00:16:20.439Z,67.49
2019-05-02T00:19:09.215Z,67.36
2019-05-02T00:21:54.643Z,67.86
2019-05-02T00:24:41.106Z,67.93
2019-05-02T00:27:27.161Z,68.17
2019-05-02T00:30:13.097Z,68.33
2019-05-02T00:32:59.640Z,68.50
2019-05-02T00:35:47.544Z,68.63
2019-05-02T00:38:38.563Z,68.75
2019-05-02T00:41:21.470Z,68.82
2019-05-02T00:44:10.959Z,69.46
2019-05-02T00:46:57.654Z,69.35
2019-05-02T00:49:45.619Z,69.42
2019-05-02T00:52:32.885Z,69.98
2019-05-02T00:55:28.892Z,69.87
2019-05-02T00:58:17.388Z,70.01
2019-05-02T01:01:37.761Z,70.22
2019-05-02T01:04:30.208Z,70.51
2019-05-02T01:07:20.363Z,70.74
2019-05-02T01:10:04.309Z,70.46
2019-05-02T01:12:50.259Z,70.80
2019-05-02T01:15:39.095Z,70.84
2019-05-02T01:18:25.342Z,71.02
2019-05-02T01:21:11.326Z,71.01
2019-05-02T01:23:58.926Z,71.44
2019-05-02T01:26:54.873Z,71.24
2019-05-02T01:29:49.167Z,71.52
2019-05-02T01:33:01.398Z,71.50
2019-05-02T01:35:50.926Z,71.85
2019-05-02T01:38:41.007Z,72.07
2019-05-02T01:41:29.118Z,71.94
2019-05-02T01:44:15.111Z,72.04
2019-05-02T01:47:01.017Z,72.15
2019-05-02T01:49:47.270Z,72.20
2019-05-02T01:52:33.634Z,72.12
2019-05-02T01:55:21.201Z,72.49
2019-05-02T01:58:07.472Z,72.58
2019-05-02T02:00:53.502Z,72.67
2019-05-02T02:03:43.522Z,72.88
2019-05-02T02:06:27.439Z,72.93
2019-05-02T02:09:14.110Z,73.03
2019-05-02T02:12:05.039Z,73.23
2019-05-02T02:14:53.551Z,73.18
2019-05-02T02:17:38.598Z,73.32
2019-05-02T02:20:26.495Z,73.27
2019-05-02T02:23:31.576Z,73.34
2019-05-02T02:26:18.566Z,73.45
2019-05-02T02:29:07.906Z,73.25
2019-05-02T02:31:53.111Z,73.01
2019-05-02T02:34:51.295Z,73.50
2019-05-02T02:37:37.290Z,73.58
2019-05-02T02:40:32.920Z,73.86
2019-05-02T02:43:32.349Z,73.83
2019-05-02T02:46:13.726Z,73.64
2019-05-02T02:49:03.108Z,73.54
2019-05-02T02:51:49.119Z,73.51
2019-05-02T02:54:36.503Z,72.90
2019-05-02T02:57:29.582Z,72.45
2019-05-02T03:00:15.900Z,72.44
2019-05-02T03:03:02.344Z,72.30
2019-05-02T03:05:48.861Z,72.62
2019-05-02T03:08:44.566Z,72.48
2019-05-02T03:11:25.571Z,72.66
2019-05-02T03:14:26.074Z,72.49
2019-05-02T03:17:12.337Z,72.30
2019-05-02T03:20:03.736Z,71.92
2019-05-02T03:22:51.948Z,71.59
2019-05-02T03:25:49.795Z,71.60
2019-05-02T03:28:26.596Z,71.19
2019-05-02T03:31:23.842Z,71.63
2019-05-02T03:34:01.647Z,71.36
2019-05-02T03:36:47.867Z,71.54
2019-05-02T03:39:35.529Z,71.51
2019-05-02T03:42:24.932Z,71.72
2019-05-02T03:45:11.385Z,71.82
2019-05-02T03:47:57.495Z,71.58
2019-05-02T03:50:43.640Z,71.72
2019-05-02T03:53:30.978Z,71.74
2019-05-02T03:56:17.305Z,71.82
2019-05-02T03:59:03.570Z,71.69
2019-05-02T04:01:49.758Z,71.80
2019-05-02T04:04:36.124Z,71.81
2019-05-02T04:07:22.437Z,71.71
2019-05-02T04:10:13.515Z,71.97
2019-05-02T04:12:58.345Z,72.02
2019-05-02T04:15:44.556Z,72.40
2019-05-02T04:18:30.846Z,72.55
2019-05-02T04:21:24.491Z,72.31
2019-05-02T04:24:13.248Z,72.49
2019-05-02T04:26:56.391Z,72.57
2019-05-02T04:29:42.008Z,72.50
2019-05-02T04:32:28.347Z,72.38
2019-05-02T04:35:14.439Z,72.05
2019-05-02T04:38:02.741Z,72.29
2019-05-02T04:40:49.598Z,72.05
2019-05-02T04:43:40.593Z,72.39
2019-05-02T04:46:28.096Z,71.99
2019-05-02T04:49:11.668Z,71.96
2019-05-02T04:52:06.056Z,71.56
2019-05-02T04:54:45.562Z,71.50
2019-05-02T04:57:37.010Z,71.12
2019-05-02T05:00:20.013Z,70.93
2019-05-02T05:03:07.214Z,70.59
2019-05-02T05:05:59.373Z,70.96
2019-05-02T05:08:41.984Z,70.26
2019-05-02T05:11:28.147Z,69.87
2019-05-02T05:14:14.507Z,69.92
2019-05-02T05:17:00.779Z,69.66
2019-05-02T05:19:48.761Z,69.48
2019-05-02T05:22:38.437Z,69.18
2019-05-02T05:25:29.931Z,69.06
2019-05-02T05:28:19.829Z,68.99
2019-05-02T05:31:03.876Z,68.96
2019-05-02T05:33:50.154Z,68.99
2019-05-02T05:36:48.263Z,68.92
2019-05-02T05:39:38.102Z,69.64
2019-05-02T05:42:23.173Z,69.18
2019-05-02T05:45:13.821Z,69.53
2019-05-02T05:48:01.945Z,69.76
2019-05-02T05:50:48.064Z,69.53
2019-05-02T05:53:33.923Z,69.20
2019-05-02T05:56:19.981Z,69.08
2019-05-02T05:59:07.847Z,68.82
2019-05-02T06:01:54.148Z,68.57
2019-05-02T06:04:40.603Z,67.92
2019-05-02T06:07:27.810Z,68.17
2019-05-02T06:10:13.904Z,67.72
2019-05-02T06:12:59.921Z,67.47
2019-05-02T06:15:47.087Z,67.37
2019-05-02T06:18:36.244Z,67.28
2019-05-02T06:21:20.975Z,66.67
2019-05-02T06:24:10.920Z,66.92
2019-05-02T06:26:57.401Z,66.99
2019-05-02T06:29:43.465Z,66.30
2019-05-02T06:32:29.445Z,65.61
2019-05-02T06:35:17.151Z,65.96
2019-05-02T06:38:03.419Z,65.04
2019-05-02T06:40:49.474Z,65.02
2019-05-02T06:43:35.470Z,64.81
2019-05-02T06:46:27.648Z,64.40
2019-05-02T06:49:09.900Z,64.76
2019-05-02T06:51:57.558Z,64.68
2019-05-02T06:54:43.984Z,64.96
2019-05-02T06:57:29.884Z,64.91
2019-05-02T07:00:16.179Z,64.67
2019-05-02T07:03:05.006Z,64.42
2019-05-02T07:05:51.117Z,64.56
2019-05-02T07:08:36.989Z,64.24
2019-05-02T07:11:23.120Z,64.41
2019-05-02T07:14:13.558Z,63.68
2019-05-02T07:17:26.505Z,62.61
2019-05-02T07:20:13.324Z,62.50
2019-05-02T07:22:59.765Z,62.72
2019-05-02T07:25:46.219Z,61.77
2019-05-02T07:28:32.200Z,61.81
2019-05-02T07:31:18.400Z,61.13
2019-05-02T07:34:07.951Z,61.09
2019-05-02T07:36:52.223Z,61.54
2019-05-02T07:39:40.927Z,60.96
2019-05-02T07:42:26.368Z,60.97
2019-05-02T07:45:12.554Z,60.63
2019-05-02T07:48:01.333Z,60.73
2019-05-02T07:50:48.117Z,60.92
2019-05-02T07:53:34.565Z,60.92
2019-05-02T07:56:20.641Z,60.50
2019-05-02T07:59:06.678Z,60.03
2019-05-02T08:01:52.929Z,59.78
2019-05-02T08:04:43.556Z,59.68
2019-05-02T08:07:34.045Z,59.93
2019-05-02T08:10:16.379Z,59.76
2019-05-02T08:13:03.232Z,60.38
2019-05-02T08:15:50.904Z,60.23
2019-05-02T08:18:37.686Z,60.99
2019-05-02T08:21:27.297Z,60.33
2019-05-02T08:24:11.821Z,60.16
2019-05-02T08:27:15.757Z,59.90
2019-05-02T08:30:04.346Z,60.16
2019-05-02T08:32:49.818Z,60.73
2019-05-02T08:35:35.945Z,60.44
2019-05-02T08:38:22.321Z,60.15
2019-05-02T08:41:08.279Z,60.21
2019-05-02T08:43:54.479Z,59.91
2019-05-02T08:46:40.679Z,60.21
2019-05-02T08:49:27.199Z,59.79
2019-05-02T08:52:13.676Z,60.15
2019-05-02T08:55:04.518Z,60.63
2019-05-02T08:57:47.662Z,60.18
2019-05-02T09:00:37.416Z,60.46
2019-05-02T09:03:21.544Z,59.86
2019-05-02T09:06:07.528Z,59.78
2019-05-02T09:08:54.185Z,58.78
2019-05-02T09:11:41.493Z,58.56
2019-05-02T09:14:27.483Z,58.17
2019-05-02T09:17:16.532Z,56.81
2019-05-02T09:20:05.450Z,57.02
2019-05-02T09:22:55.960Z,57.75
2019-05-02T09:25:40.265Z,57.01
2019-05-02T09:28:26.628Z,56.35
2019-05-02T09:31:14.918Z,57.08
2019-05-02T09:34:02.694Z,55.80
2019-05-02T09:36:49.820Z,54.96
2019-05-02T09:39:36.619Z,54.13
2019-05-02T09:42:23.712Z,54.54
2019-05-02T09:45:16.165Z,54.62
2019-05-02T09:48:07.172Z,54.78
2019-05-02T09:50:50.096Z,54.16
2019-05-02T09:53:36.209Z,54.17
2019-05-02T09:56:22.174Z,53.94
2019-05-02T09:59:24.424Z,54.16
2019-05-02T10:01:56.935Z,54.42
2019-05-02T10:04:44.137Z,54.38
2019-05-02T10:07:32.353Z,54.74
2019-05-02T10:10:17.924Z,55.00
2019-05-02T10:13:03.991Z,54.39
2019-05-02T10:15:50.013Z,54.67
2019-05-02T10:18:36.099Z,55.24
2019-05-02T10:21:22.882Z,54.60
2019-05-02T10:24:09.220Z,53.55
2019-05-02T10:27:04.180Z,53.87
2019-05-02T10:29:45.523Z,54.11
2019-05-02T10:32:32.427Z,54.09
2019-05-02T10:35:20.467Z,53.64
2019-05-02T10:38:09.551Z,52.40
2019-05-02T10:41:01.464Z,53.08
2019-05-02T10:43:46.969Z,51.31
2019-05-02T10:46:47.872Z,51.00
2019-05-02T10:49:42.593Z,51.55
2019-05-02T10:52:29.961Z,50.95
2019-05-02T10:55:16.706Z,51.21
2019-05-02T10:58:03.019Z,50.32
2019-05-02T11:00:49.218Z,51.25
2019-05-02T11:03:46.181Z,51.00
2019-05-02T11:06:27.861Z,50.11
2019-05-02T11:09:16.755Z,48.50
2019-05-02T11:12:03.065Z,48.55
2019-05-02T11:14:54.956Z,48.08
2019-05-02T11:17:42.328Z,48.28
2019-05-02T11:20:28.603Z,48.50
2019-05-02T11:23:16.879Z,47.59
2019-05-02T11:26:03.033Z,47.09
2019-05-02T11:28:49.123Z,47.19
2019-05-02T11:31:35.329Z,47.19
2019-05-02T11:34:22.114Z,47.06
2019-05-02T11:37:08.383Z,47.01
2019-05-02T11:39:59.977Z,46.84
2019-05-02T11:42:42.864Z,46.07
2019-05-02T11:45:29.165Z,46.32
2019-05-02T11:48:15.564Z,45.77
2019-05-02T11:51:02.739Z,46.36
2019-05-02T11:53:49.130Z,46.55
2019-05-02T11:56:35.421Z,46.05
2019-05-02T11:59:27.612Z,44.38
2019-05-02T12:02:28.373Z,43.52
2019-05-02T12:05:16.269Z,43.48
2019-05-02T12:08:08.304Z,42.01
2019-05-02T12:10:51.959Z,43.05
2019-05-02T12:13:37.798Z,41.97
2019-05-02T12:16:23.839Z,41.83
2019-05-02T12:19:14.368Z,41.02
2019-05-02T12:21:58.180Z,41.73
2019-05-02T12:24:45.485Z,41.91
2019-05-02T12:27:31.913Z,40.35
2019-05-02T12:30:17.990Z,39.56
2019-05-02T12:33:03.831Z,39.43
2019-05-02T12:35:49.762Z,40.54
2019-05-02T12:38:35.900Z,39.22
2019-05-02T12:41:25.054Z,38.77
2019-05-02T12:44:11.766Z,38.63
2019-05-02T12:46:58.282Z,38.42
2019-05-02T12:49:44.730Z,38.80
2019-05-02T12:52:32.077Z,38.03
2019-05-02T12:55:19.036Z,38.29
2019-05-02T12:58:05.073Z,37.99
2019-05-02T13:00:53.037Z,38.52
2019-05-02T13:04:02.774Z,39.17
2019-05-02T13:06:48.860Z,39.67
2019-05-02T13:09:35.736Z,39.38
2019-05-02T13:12:26.557Z,39.53
2019-05-02T13:15:12.871Z,39.19
2019-05-02T13:17:59.190Z,39.10
2019-05-02T13:20:45.474Z,38.36
2019-05-02T13:24:07.545Z,38.10
2019-05-02T13:26:59.309Z,38.43
2019-05-02T13:29:42.838Z,38.22
2019-05-02T13:32:39.930Z,37.92
2019-05-02T13:35:32.358Z,38.10
2019-05-02T13:38:22.361Z,38.68
2019-05-02T13:41:08.758Z,38.44
2019-05-02T13:43:54.966Z,38.36
2019-05-02T13:46:41.960Z,39.04
2019-05-02T13:49:27.957Z,38.83
2019-05-02T13:52:13.957Z,38.73
2019-05-02T13:55:01.823Z,39.11
2019-05-02T13:57:47.700Z,39.44
2019-05-02T14:00:46.025Z,39.87
2019-05-02T14:03:32.758Z,40.35
2019-05-02T14:06:29.709Z,40.84
2019-05-02T14:09:22.777Z,40.84
2019-05-02T14:12:16.389Z,43.39
2019-05-02T14:15:03.128Z,48.02
2019-05-02T14:17:49.520Z,50.70
2019-05-02T14:20:37.408Z,52.16
2019-05-02T14:23:23.657Z,53.39
2019-05-02T14:26:11.674Z,55.37
2019-05-02T14:28:57.860Z,58.30
2019-05-02T14:31:44.099Z,59.61
2019-05-02T14:34:57.840Z,60.16
2019-05-02T14:37:43.965Z,59.75
2019-05-02T14:40:33.029Z,59.43
2019-05-02T14:43:38.202Z,60.49
2019-05-02T14:46:34.305Z,61.15
2019-05-02T14:49:16.747Z,61.30
2019-05-02T14:52:07.061Z,61.18
2019-05-02T14:54:52.527Z,61.27
2019-05-02T14:57:39.663Z,61.35
2019-05-02T15:00:31.562Z,61.14
2019-05-02T15:03:19.055Z,61.08
2019-05-02T15:06:06.995Z,60.38
2019-05-02T15:08:52.911Z,60.65
2019-05-02T15:11:58.330Z,60.44
2019-05-02T15:14:44.265Z,59.86
2019-05-02T15:17:36.236Z,60.07
2019-05-02T15:20:18.427Z,60.16
2019-05-02T15:23:07.087Z,60.21
2019-05-02T15:25:56.091Z,59.95
2019-05-02T15:28:42.213Z,59.18
2019-05-02T15:31:32.384Z,59.05
2019-05-02T15:34:43.283Z,59.36
2019-05-02T15:37:26.639Z,58.74
2019-05-02T15:40:46.769Z,58.86
2019-05-02T15:43:09.729Z,59.63
2019-05-02T15:45:55.732Z,59.16
2019-05-02T15:48:42.279Z,60.10
2019-05-02T15:51:28.489Z,62.59
2019-05-02T15:54:18.793Z,65.60
2019-05-02T15:57:05.529Z,67.49
2019-05-02T15:59:51.631Z,69.31
2019-05-02T16:02:38.430Z,69.88
2019-05-02T16:05:24.596Z,71.84
2019-05-02T16:08:12.535Z,71.49
2019-05-02T16:10:58.517Z,72.30
2019-05-02T16:13:46.992Z,72.62
2019-05-02T16:16:36.587Z,73.33
2019-05-02T16:19:27.186Z,73.61
2019-05-02T16:22:16.483Z,73.49
2019-05-02T16:25:02.548Z,72.35
2019-05-02T16:27:49.359Z,71.96
2019-05-02T16:30:36.911Z,72.35
2019-05-02T16:33:23.465Z,72.27
2019-05-02T16:36:09.671Z,73.23
2019-05-02T16:38:55.812Z,73.46
2019-05-02T16:41:49.111Z,74.15
2019-05-02T16:44:32.927Z,73.03
2019-05-02T16:47:18.859Z,74.14
2019-05-02T16:50:05.609Z,75.69
2019-05-02T16:52:53.054Z,76.18
2019-05-02T16:55:39.263Z,75.75
2019-05-02T16:58:25.268Z,75.64
2019-05-02T17:01:12.256Z,76.57
2019-05-02T17:04:05.191Z,77.05
2019-05-02T17:06:47.457Z,76.08
2019-05-02T17:10:16.162Z,76.38
2019-05-02T17:13:00.297Z,76.67
2019-05-02T17:15:46.227Z,75.58
2019-05-02T17:18:32.722Z,75.17
2019-05-02T17:21:19.007Z,76.74
2019-05-02T17:24:05.129Z,77.21
2019-05-02T17:26:51.943Z,75.13
2019-05-02T17:29:38.129Z,73.72
2019-05-02T17:32:24.070Z,74.55
2019-05-02T17:35:12.321Z,75.08
2019-05-02T17:38:02.576Z,75.75
2019-05-02T17:40:51.650Z,77.33
2019-05-02T17:43:37.454Z,78.04
2019-05-02T17:46:25.950Z,77.13
2019-05-02T17:49:12.076Z,77.74
2019-05-02T17:52:26.706Z,78.47
2019-05-02T17:55:09.702Z,78.28
2019-05-02T17:57:56.003Z,78.63
2019-05-02T18:00:47.510Z,78.73
2019-05-02T18:03:35.455Z,78.52
2019-05-02T18:06:30.780Z,79.72
2019-05-02T18:09:08.786Z,79.90
2019-05-02T18:11:55.000Z,80.60
2019-05-02T18:14:42.150Z,80.08
2019-05-02T18:17:29.178Z,80.28
2019-05-02T18:20:15.501Z,80.51
2019-05-02T18:23:03.062Z,80.56
2019-05-02T18:25:49.704Z,79.55
2019-05-02T18:28:46.033Z,79.92
2019-05-02T18:31:23.883Z,80.10
2019-05-02T18:34:14.379Z,81.04
2019-05-02T18:37:02.985Z,81.18
2019-05-02T18:39:51.917Z,81.77
2019-05-02T18:42:34.307Z,82.06
2019-05-02T18:45:25.225Z,82.50
2019-05-02T18:48:12.701Z,82.24
2019-05-02T18:50:59.166Z,82.16
2019-05-02T18:53:45.686Z,82.07
2019-05-02T18:56:33.956Z,82.09
2019-05-02T18:59:21.677Z,81.50
2019-05-02T19:02:07.602Z,82.63
2019-05-02T19:04:53.582Z,82.34
2019-05-02T19:07:39.509Z,81.94
2019-05-02T19:10:25.527Z,81.78
2019-05-02T19:13:12.694Z,80.37
2019-05-02T19:15:59.003Z,80.87
2019-05-02T19:18:49.035Z,80.79
2019-05-02T19:21:36.773Z,80.85
2019-05-02T19:24:27.526Z,80.66
2019-05-02T19:27:13.700Z,81.30
2019-05-02T19:30:00.001Z,81.57
2019-05-02T19:32:46.051Z,81.29
2019-05-02T19:35:32.762Z,81.72
2019-05-02T19:38:24.695Z,81.67
2019-05-02T19:41:09.178Z,81.01
2019-05-02T19:43:54.779Z,80.91
2019-05-02T19:46:42.238Z,81.50
2019-05-02T19:49:28.303Z,81.28
2019-05-02T19:52:14.789Z,81.38
2019-05-02T19:55:01.105Z,80.75
2019-05-02T19:57:47.355Z,81.23
2019-05-02T20:00:36.638Z,81.79
2019-05-02T20:03:25.929Z,82.65
2019-05-02T20:06:09.727Z,82.14
2019-05-02T20:08:59.208Z,81.32
2019-05-02T20:11:43.478Z,80.86
2019-05-02T20:14:29.680Z,80.61
2019-05-02T20:17:20.005Z,80.87
2019-05-02T20:20:07.206Z,80.83
2019-05-02T20:22:53.468Z,80.72
2019-05-02T20:25:39.797Z,79.94
2019-05-02T20:28:25.684Z,78.83
2019-05-02T20:31:12.292Z,78.34
2019-05-02T20:33:58.408Z,78.00
2019-05-02T20:36:44.619Z,76.77
2019-05-02T20:39:31.794Z,75.91
2019-05-02T20:42:18.091Z,73.44
2019-05-02T20:45:04.503Z,71.82
2019-05-02T20:47:52.282Z,70.36
2019-05-02T20:50:38.519Z,69.48
2019-05-02T20:53:30.858Z,69.55
2019-05-02T20:56:13.546Z,70.20
2019-05-02T20:59:01.883Z,69.46
2019-05-02T21:01:48.042Z,68.63
2019-05-02T21:04:34.001Z,68.24
2019-05-02T21:07:52.522Z,67.87
2019-05-02T21:10:41.736Z,67.25
2019-05-02T21:13:28.219Z,68.10
2019-05-02T21:16:14.562Z,68.79
2019-05-02T21:19:02.232Z,68.30
2019-05-02T21:21:48.549Z,68.40
2019-05-02T21:24:34.790Z,68.29
2019-05-02T21:27:21.789Z,68.36
2019-05-02T21:30:07.905Z,69.45
2019-05-02T21:32:54.017Z,70.16
2019-05-02T21:35:42.335Z,70.61
2019-05-02T21:38:28.502Z,70.78
2019-05-02T21:41:14.938Z,70.73
2019-05-02T21:44:02.479Z,70.90
2019-05-02T21:46:48.738Z,70.92
2019-05-02T21:50:01.816Z,70.97
2019-05-02T21:53:19.323Z,71.54
2019-05-02T21:56:26.073Z,72.10
2019-05-02T21:59:12.989Z,72.50
2019-05-02T22:02:02.252Z,72.47
2019-05-02T22:04:47.834Z,72.76
2019-05-02T22:07:34.136Z,72.64
2019-05-02T22:10:20.258Z,72.80
2019-05-02T22:13:06.464Z,72.82
2019-05-02T22:15:52.931Z,73.25
2019-05-02T22:18:38.903Z,73.31
2019-05-02T22:21:24.998Z,73.12
2019-05-02T22:24:14.317Z,73.08
2019-05-02T22:27:01.771Z,73.31
2019-05-02T22:29:47.729Z,73.03
2019-05-02T22:35:21.704Z,72.51
2019-05-02T22:38:22.226Z,72.15
2019-05-02T22:41:08.594Z,72.19
2019-05-02T22:43:54.691Z,72.52
2019-05-02T22:46:43.157Z,72.85
2019-05-02T22:49:31.669Z,72.67
2019-05-02T22:52:17.274Z,73.19
2019-05-02T22:55:03.439Z,73.21
2019-05-02T22:57:51.676Z,73.20
2019-05-02T23:00:37.480Z,73.16
2019-05-02T23:03:24.155Z,72.54
2019-05-02T23:06:12.421Z,72.09
2019-05-02T23:08:58.799Z,72.15
2019-05-02T23:11:45.383Z,72.09
2019-05-02T23:14:32.522Z,72.75
2019-05-02T23:17:19.067Z,73.86
2019-05-02T23:20:05.050Z,74.49
2019-05-02T23:22:52.363Z,74.83
2019-05-02T23:25:54.905Z,75.13
2019-05-02T23:28:42.610Z,75.68
2019-05-02T23:31:28.952Z,75.65
2019-05-02T23:34:15.246Z,75.98
2019-05-02T23:37:02.652Z,76.04
2019-05-02T23:39:48.934Z,76.65
2019-05-02T23:42:34.990Z,76.61
2019-05-02T23:45:22.529Z,76.75
2019-05-02T23:48:09.103Z,77.79
2019-05-02T23:50:56.558Z,78.25
2019-05-02T23:53:42.787Z,78.35
2019-05-02T23:56:29.124Z,78.16
2019-05-02T23:59:15.525Z,78.58
